createdAt,value
2019-03-03T00:00:41.532Z,18.87
2019-03-03T00:03:11.451Z,19.37
2019-03-03T00:05:41.268Z,18.57
2019-03-03T00:08:11.635Z,17.30
2019-03-03T00:10:41.572Z,17.90
2019-03-03T00:13:11.574Z,19.23
2019-03-03T00:15:41.674Z,17.12
2019-03-03T00:18:11.784Z,16.83
2019-03-03T00:20:43.140Z,18.37
2019-03-03T00:23:13.487Z,19.60
2019-03-03T00:25:43.327Z,18.00
2019-03-03T00:28:13.386Z,18.17
2019-03-03T00:30:44.728Z,17.00
2019-03-03T00:33:14.773Z,15.57
2019-03-03T00:35:45.143Z,15.00
2019-03-03T00:38:26.637Z,15.27
2019-03-03T00:41:17.209Z,15.32
2019-03-03T00:44:03.751Z,16.63
2019-03-03T00:46:50.318Z,14.50
2019-03-03T00:49:57.880Z,14.38
2019-03-03T00:52:37.480Z,13.93
2019-03-03T00:55:19.527Z,13.73
2019-03-03T00:57:55.271Z,13.97
2019-03-03T01:00:33.618Z,13.70
2019-03-03T01:03:25.163Z,12.33
2019-03-03T01:06:14.039Z,12.27
2019-03-03T01:08:59.954Z,13.77
2019-03-03T01:11:52.159Z,11.60
2019-03-03T01:14:34.981Z,11.90
2019-03-03T01:17:15.603Z,11.87
2019-03-03T01:19:53.247Z,11.90
2019-03-03T01:22:40.880Z,12.10
2019-03-03T01:25:10.685Z,11.30
2019-03-03T01:27:42.766Z,11.35
2019-03-03T01:30:12.920Z,11.10
2019-03-03T01:32:42.869Z,9.93
2019-03-03T01:35:12.965Z,10.27
2019-03-03T01:37:44.064Z,9.03
2019-03-03T01:40:14.176Z,10.90
2019-03-03T01:42:44.305Z,9.50
2019-03-03T01:45:14.727Z,9.77
2019-03-03T01:47:44.515Z,9.03
2019-03-03T01:50:14.387Z,10.50
2019-03-03T01:52:44.230Z,9.23
2019-03-03T01:55:13.990Z,8.90
2019-03-03T01:57:43.658Z,9.47
2019-03-03T02:00:22.658Z,9.60
2019-03-03T02:02:52.673Z,9.13
2019-03-03T02:05:23.091Z,9.10
2019-03-03T02:07:52.904Z,8.80
2019-03-03T02:10:23.506Z,8.33
2019-03-03T02:12:55.407Z,8.93
2019-03-03T02:15:25.234Z,7.73
2019-03-03T02:17:55.288Z,7.55
2019-03-03T02:20:25.529Z,7.30
2019-03-03T02:22:55.371Z,8.70
2019-03-03T02:25:25.402Z,7.67
2019-03-03T02:27:55.317Z,7.33
2019-03-03T02:30:26.888Z,7.67
2019-03-03T02:32:57.055Z,6.70
2019-03-03T02:35:27.257Z,7.37
2019-03-03T02:37:57.324Z,6.73
2019-03-03T02:40:28.335Z,7.63
2019-03-03T02:42:59.713Z,7.27
2019-03-03T02:45:29.746Z,6.87
2019-03-03T02:47:59.601Z,6.87
2019-03-03T02:50:29.416Z,5.90
2019-03-03T02:52:59.789Z,6.27
2019-03-03T02:55:29.689Z,4.95
2019-03-03T02:57:59.899Z,5.20
2019-03-03T03:00:30.135Z,4.83
2019-03-03T03:03:01.412Z,5.90
2019-03-03T03:05:53.691Z,5.60
2019-03-03T03:08:34.025Z,4.43
2019-03-03T03:11:21.249Z,4.70
2019-03-03T03:13:59.178Z,4.27
2019-03-03T03:16:37.627Z,5.30
2019-03-03T03:19:20.741Z,5.70
2019-03-03T03:22:07.039Z,5.13
2019-03-03T03:24:55.223Z,5.25
2019-03-03T03:27:49.155Z,6.43
2019-03-03T03:30:37.970Z,5.83
2019-03-03T03:33:15.856Z,5.90
2019-03-03T03:36:00.706Z,6.77
2019-03-03T03:39:01.880Z,6.63
2019-03-03T03:41:51.144Z,6.67
2019-03-03T03:44:43.494Z,6.80
2019-03-03T03:47:42.338Z,7.40
2019-03-03T03:50:21.706Z,7.37
2019-03-03T03:53:06.569Z,6.63
2019-03-03T03:55:54.625Z,7.40
2019-03-03T03:58:42.381Z,7.20
2019-03-03T04:01:24.630Z,7.50
2019-03-03T04:04:05.001Z,6.90
2019-03-03T04:06:54.074Z,7.30
2019-03-03T04:09:33.992Z,6.93
2019-03-03T04:12:13.242Z,6.95
2019-03-03T04:14:51.940Z,6.23
2019-03-03T04:17:29.537Z,6.00
2019-03-03T04:20:05.715Z,6.50
2019-03-03T04:22:55.010Z,5.90
2019-03-03T04:25:42.736Z,5.33
2019-03-03T04:28:19.636Z,5.63
2019-03-03T04:30:56.116Z,5.17
2019-03-03T04:33:38.312Z,4.77
2019-03-03T04:36:14.866Z,5.47
2019-03-03T04:39:00.136Z,4.47
2019-03-03T04:41:47.612Z,4.53
2019-03-03T04:44:23.029Z,4.17
2019-03-03T04:46:59.043Z,3.83
2019-03-03T04:49:57.371Z,4.27
2019-03-03T04:52:37.530Z,3.80
2019-03-03T04:55:19.995Z,3.63
2019-03-03T04:58:09.130Z,3.50
2019-03-03T05:00:57.102Z,3.73
2019-03-03T05:03:35.137Z,3.17
2019-03-03T05:06:10.494Z,3.17
2019-03-03T05:08:59.545Z,3.10
2019-03-03T05:12:23.583Z,3.10
2019-03-03T05:14:56.041Z,2.73
2019-03-03T05:17:32.793Z,3.13
2019-03-03T05:20:03.008Z,3.12
2019-03-03T05:22:33.180Z,3.17
2019-03-03T05:25:03.429Z,3.00
2019-03-03T05:27:33.647Z,2.80
2019-03-03T05:30:03.309Z,2.77
2019-03-03T05:32:32.933Z,2.70
2019-03-03T05:35:02.599Z,2.67
2019-03-03T05:37:32.488Z,2.25
2019-03-03T05:40:02.336Z,2.40
2019-03-03T05:42:32.081Z,2.72
2019-03-03T05:45:01.711Z,2.30
2019-03-03T05:47:31.658Z,3.07
2019-03-03T05:50:01.651Z,2.90
2019-03-03T05:52:31.309Z,2.70
2019-03-03T05:55:01.281Z,2.50
2019-03-03T05:57:30.836Z,3.52
2019-03-03T06:00:00.722Z,2.47
2019-03-03T06:02:30.704Z,3.22
2019-03-03T06:05:01.247Z,2.17
2019-03-03T06:07:30.949Z,2.53
2019-03-03T06:10:01.114Z,2.70
2019-03-03T06:12:31.295Z,3.03
2019-03-03T06:15:01.232Z,2.97
2019-03-03T06:17:31.073Z,3.37
2019-03-03T06:20:00.701Z,3.20
2019-03-03T06:22:30.578Z,2.67
2019-03-03T06:25:00.579Z,3.00
2019-03-03T06:27:30.302Z,2.60
2019-03-03T06:29:59.996Z,3.20
2019-03-03T06:32:29.856Z,3.10
2019-03-03T06:34:59.859Z,3.83
2019-03-03T06:37:29.529Z,3.25
2019-03-03T06:39:59.230Z,3.37
2019-03-03T06:42:29.145Z,3.87
2019-03-03T06:44:58.819Z,3.50
2019-03-03T06:47:29.039Z,3.93
2019-03-03T06:49:58.906Z,3.87
2019-03-03T06:52:28.831Z,3.70
2019-03-03T06:54:58.712Z,3.27
2019-03-03T06:57:28.954Z,3.93
2019-03-03T06:59:58.617Z,3.57
2019-03-03T07:02:28.536Z,4.57
2019-03-03T07:04:58.469Z,3.60
2019-03-03T07:07:28.208Z,3.70
2019-03-03T07:09:58.067Z,4.53
2019-03-03T07:12:27.967Z,3.87
2019-03-03T07:14:57.672Z,3.43
2019-03-03T07:17:27.331Z,3.67
2019-03-03T07:20:03.365Z,3.67
2019-03-03T07:22:37.922Z,3.02
2019-03-03T07:25:09.730Z,2.93
2019-03-03T07:27:41.182Z,3.08
2019-03-03T07:30:13.093Z,3.33
2019-03-03T07:33:00.630Z,3.08
2019-03-03T07:35:30.623Z,2.80
2019-03-03T07:38:00.833Z,2.87
2019-03-03T07:40:31.503Z,2.50
2019-03-03T07:43:01.653Z,3.30
2019-03-03T07:45:31.548Z,2.27
2019-03-03T07:48:01.174Z,2.43
2019-03-03T07:50:31.065Z,3.43
2019-03-03T07:53:00.730Z,3.05
2019-03-03T07:55:30.357Z,3.30
2019-03-03T07:58:00.307Z,3.13
2019-03-03T08:00:30.305Z,3.50
2019-03-03T08:03:00.296Z,3.17
2019-03-03T08:05:29.917Z,3.02
2019-03-03T08:08:00.109Z,2.87
2019-03-03T08:10:29.818Z,2.50
2019-03-03T08:13:08.717Z,3.17
2019-03-03T08:15:31.294Z,3.45
2019-03-03T08:18:01.288Z,2.40
2019-03-03T08:20:30.995Z,3.02
2019-03-03T08:23:00.612Z,2.07
2019-03-03T08:25:30.269Z,2.50
2019-03-03T08:28:00.149Z,3.07
2019-03-03T08:30:31.051Z,2.90
2019-03-03T08:33:00.987Z,3.33
2019-03-03T08:35:30.723Z,2.27
2019-03-03T08:38:00.929Z,2.57
2019-03-03T08:40:30.772Z,2.67
2019-03-03T08:43:17.763Z,2.67
2019-03-03T08:46:09.815Z,2.10
2019-03-03T08:48:43.849Z,2.20
2019-03-03T08:51:35.658Z,2.85
2019-03-03T08:54:29.826Z,2.00
2019-03-03T08:57:17.443Z,3.40
2019-03-03T08:59:59.808Z,1.90
2019-03-03T09:02:35.891Z,2.40
2019-03-03T09:05:32.492Z,2.00
2019-03-03T09:08:24.135Z,2.75
2019-03-03T09:11:12.194Z,3.27
2019-03-03T09:14:00.882Z,2.15
2019-03-03T09:16:55.938Z,1.90
2019-03-03T09:19:34.483Z,2.33
2019-03-03T09:22:23.451Z,2.53
2019-03-03T09:25:09.554Z,2.20
2019-03-03T09:28:04.638Z,2.83
2019-03-03T09:30:52.685Z,3.17
2019-03-03T09:33:50.287Z,2.50
2019-03-03T09:36:42.519Z,2.67
2019-03-03T09:39:46.765Z,2.83
2019-03-03T09:42:36.216Z,2.80
2019-03-03T09:45:37.899Z,2.90
2019-03-03T09:48:25.695Z,3.05
2019-03-03T09:51:13.389Z,2.50
2019-03-03T09:53:54.609Z,2.27
2019-03-03T09:56:30.064Z,2.50
2019-03-03T09:59:33.838Z,2.80
2019-03-03T10:02:13.697Z,3.10
2019-03-03T10:05:20.893Z,2.47
2019-03-03T10:08:08.714Z,2.37
2019-03-03T10:10:55.853Z,2.97
2019-03-03T10:13:34.340Z,2.93
2019-03-03T10:16:20.580Z,2.67
2019-03-03T10:19:21.978Z,2.10
2019-03-03T10:22:03.299Z,2.63
2019-03-03T10:25:07.508Z,2.90
2019-03-03T10:27:51.152Z,2.60
2019-03-03T10:30:37.104Z,3.60
2019-03-03T10:33:35.282Z,2.50
2019-03-03T10:36:24.544Z,2.70
2019-03-03T10:39:12.855Z,3.13
2019-03-03T10:41:54.776Z,2.57
2019-03-03T10:44:47.946Z,2.30
2019-03-03T10:47:35.687Z,1.70
2019-03-03T10:50:16.941Z,2.33
2019-03-03T10:52:55.491Z,2.12
2019-03-03T10:55:34.097Z,2.10
2019-03-03T10:58:18.513Z,1.87
2019-03-03T11:01:09.212Z,2.10
2019-03-03T11:04:07.331Z,1.75
2019-03-03T11:06:57.755Z,2.20
2019-03-03T11:09:46.961Z,2.00
2019-03-03T11:12:31.835Z,2.27
2019-03-03T11:15:19.582Z,2.20
2019-03-03T11:17:57.776Z,2.07
2019-03-03T11:20:52.106Z,2.37
2019-03-03T11:23:29.990Z,1.80
2019-03-03T11:26:15.935Z,2.17
2019-03-03T11:29:04.798Z,1.60
2019-03-03T11:32:11.758Z,1.55
2019-03-03T11:35:09.653Z,1.67
2019-03-03T11:37:46.839Z,2.03
2019-03-03T11:40:24.494Z,2.00
2019-03-03T11:43:16.444Z,1.83
2019-03-03T11:46:11.623Z,2.20
2019-03-03T11:48:59.149Z,2.00
2019-03-03T11:51:51.127Z,2.57
2019-03-03T11:54:25.626Z,2.33
2019-03-03T11:57:06.315Z,3.30
2019-03-03T11:59:42.373Z,2.65
2019-03-03T12:02:20.236Z,3.17
2019-03-03T12:05:10.199Z,3.00
2019-03-03T12:07:57.864Z,2.67
2019-03-03T12:10:36.921Z,2.87
2019-03-03T12:13:22.330Z,3.03
2019-03-03T12:16:07.752Z,2.60
2019-03-03T12:18:54.027Z,2.85
2019-03-03T12:21:49.180Z,2.70
2019-03-03T12:24:25.096Z,3.03
2019-03-03T12:27:12.721Z,3.63
2019-03-03T12:30:01.866Z,2.90
2019-03-03T12:32:44.597Z,3.00
2019-03-03T12:35:26.338Z,3.37
2019-03-03T12:38:02.116Z,2.60
2019-03-03T12:40:49.622Z,3.60
2019-03-03T12:43:44.743Z,2.73
2019-03-03T12:46:26.204Z,2.83
2019-03-03T12:49:03.867Z,3.23
2019-03-03T12:51:50.094Z,2.97
2019-03-03T12:54:31.984Z,3.03
2019-03-03T12:57:10.571Z,2.63
2019-03-03T13:00:08.266Z,3.23
2019-03-03T13:03:08.685Z,3.00
2019-03-03T13:05:54.725Z,2.30
2019-03-03T13:08:39.034Z,2.80
2019-03-03T13:11:27.179Z,3.13
2019-03-03T13:14:08.010Z,2.67
2019-03-03T13:16:51.884Z,2.40
2019-03-03T13:19:29.469Z,2.07
2019-03-03T13:22:16.711Z,2.20
2019-03-03T13:24:57.046Z,2.27
2019-03-03T13:27:36.888Z,2.60
2019-03-03T13:30:38.329Z,2.97
2019-03-03T13:33:18.993Z,3.17
2019-03-03T13:36:06.586Z,2.10
2019-03-03T13:39:05.083Z,2.77
2019-03-03T13:41:54.538Z,1.98
2019-03-03T13:44:24.939Z,2.00
2019-03-03T13:46:55.311Z,2.27
2019-03-03T13:49:25.196Z,2.67
2019-03-03T13:51:55.272Z,2.60
2019-03-03T13:54:25.219Z,2.98
2019-03-03T13:56:55.367Z,2.23
2019-03-03T13:59:25.230Z,2.47
2019-03-03T14:01:55.030Z,2.57
2019-03-03T14:04:24.813Z,3.07
2019-03-03T14:06:54.485Z,2.90
2019-03-03T14:09:24.385Z,2.97
2019-03-03T14:11:54.037Z,2.40
2019-03-03T14:14:23.715Z,3.27
2019-03-03T14:16:53.349Z,2.80
2019-03-03T14:19:23.118Z,2.97
2019-03-03T14:21:53.050Z,2.60
2019-03-03T14:24:22.796Z,2.40
2019-03-03T14:26:53.684Z,2.53
2019-03-03T14:29:23.817Z,3.40
2019-03-03T14:31:53.442Z,3.37
2019-03-03T14:34:23.426Z,3.33
2019-03-03T14:36:53.384Z,3.57
2019-03-03T14:39:23.400Z,3.20
2019-03-03T14:41:53.065Z,3.33
2019-03-03T14:44:22.832Z,2.87
2019-03-03T14:46:52.514Z,2.93
2019-03-03T14:49:22.140Z,3.97
2019-03-03T14:51:53.293Z,3.30
2019-03-03T14:54:23.271Z,3.23
2019-03-03T14:56:53.340Z,2.70
2019-03-03T14:59:23.000Z,2.23
2019-03-03T15:01:52.972Z,2.40
2019-03-03T15:04:22.865Z,2.40
2019-03-03T15:06:52.758Z,2.63
2019-03-03T15:09:23.607Z,2.27
2019-03-03T15:11:53.378Z,2.33
2019-03-03T15:14:23.322Z,2.63
2019-03-03T15:16:54.694Z,2.97
2019-03-03T15:19:25.057Z,2.30
2019-03-03T15:21:54.741Z,3.25
2019-03-03T15:24:28.107Z,2.77
2019-03-03T15:26:58.340Z,2.73
2019-03-03T15:29:28.310Z,2.23
2019-03-03T15:31:58.079Z,3.00
2019-03-03T15:34:28.078Z,1.97
2019-03-03T15:36:57.858Z,2.50
2019-03-03T15:39:30.625Z,2.13
2019-03-03T15:42:05.889Z,2.60
2019-03-03T15:44:36.169Z,3.03
2019-03-03T15:47:06.017Z,2.50
2019-03-03T15:49:35.632Z,2.87
2019-03-03T15:52:05.659Z,2.50
2019-03-03T15:54:35.272Z,3.05
2019-03-03T15:57:05.132Z,3.43
2019-03-03T15:59:35.010Z,3.17
2019-03-03T16:02:06.146Z,3.03
2019-03-03T16:04:35.843Z,3.67
2019-03-03T16:07:05.543Z,3.17
2019-03-03T16:09:35.604Z,3.60
2019-03-03T16:12:10.564Z,3.30
2019-03-03T16:14:43.927Z,2.87
2019-03-03T16:17:13.670Z,3.20
2019-03-03T16:19:44.506Z,2.80
2019-03-03T16:22:14.201Z,2.72
2019-03-03T16:24:44.638Z,3.15
2019-03-03T16:27:15.269Z,2.73
2019-03-03T16:29:45.449Z,3.43
2019-03-03T16:32:15.080Z,2.80
2019-03-03T16:34:44.736Z,2.63
2019-03-03T16:37:14.504Z,3.70
2019-03-03T16:39:49.072Z,2.58
2019-03-03T16:42:18.892Z,3.63
2019-03-03T16:44:48.844Z,2.30
2019-03-03T16:47:18.772Z,3.10
2019-03-03T16:49:48.717Z,4.23
2019-03-03T16:52:18.666Z,8.10
2019-03-03T16:54:51.907Z,3.37
2019-03-03T16:57:22.030Z,4.77
2019-03-03T16:59:51.726Z,3.70
2019-03-03T17:02:21.424Z,3.80
2019-03-03T17:04:51.167Z,2.83
2019-03-03T17:07:21.136Z,3.20
2019-03-03T17:09:51.039Z,3.15
2019-03-03T17:12:21.018Z,2.95
2019-03-03T17:14:52.669Z,3.80
2019-03-03T17:17:22.396Z,3.23
2019-03-03T17:19:52.358Z,3.10
2019-03-03T17:22:22.528Z,2.58
2019-03-03T17:24:52.569Z,2.37
2019-03-03T17:27:22.821Z,2.60
2019-03-03T17:29:52.486Z,2.52
2019-03-03T17:32:22.170Z,3.13
2019-03-03T17:34:51.802Z,2.20
2019-03-03T17:37:21.745Z,2.23
2019-03-03T17:39:51.536Z,2.53
2019-03-03T17:42:21.660Z,2.20
2019-03-03T17:44:51.700Z,2.33
2019-03-03T17:47:21.432Z,2.57
2019-03-03T17:49:51.179Z,2.75
2019-03-03T17:52:21.013Z,3.00
2019-03-03T17:54:51.119Z,3.63
2019-03-03T17:57:20.789Z,2.70
2019-03-03T17:59:50.531Z,2.35
2019-03-03T18:02:20.211Z,2.70
2019-03-03T18:04:49.914Z,2.90
2019-03-03T18:07:19.977Z,3.03
2019-03-03T18:09:50.175Z,3.40
2019-03-03T18:12:19.845Z,2.77
2019-03-03T18:14:49.931Z,3.02
2019-03-03T18:17:20.163Z,3.00
2019-03-03T18:19:52.195Z,4.33
2019-03-03T18:22:21.832Z,4.00
2019-03-03T18:24:52.025Z,5.20
2019-03-03T18:27:22.309Z,3.15
2019-03-03T18:29:52.071Z,4.07
2019-03-03T18:32:22.158Z,4.23
2019-03-03T18:34:52.323Z,3.67
2019-03-03T18:37:22.337Z,3.03
2019-03-03T18:39:52.405Z,3.70
2019-03-03T18:42:22.070Z,2.87
2019-03-03T18:44:52.136Z,3.97
2019-03-03T18:47:22.057Z,3.40
2019-03-03T18:49:52.147Z,3.53
2019-03-03T18:52:22.133Z,3.23
2019-03-03T18:54:51.894Z,2.60
2019-03-03T18:57:22.375Z,2.47
2019-03-03T18:59:52.165Z,3.20
2019-03-03T19:02:21.843Z,3.37
2019-03-03T19:04:52.938Z,3.85
2019-03-03T19:07:24.079Z,3.00
2019-03-03T19:09:54.125Z,3.98
2019-03-03T19:12:23.803Z,3.60
2019-03-03T19:14:54.610Z,4.50
2019-03-03T19:17:24.363Z,4.00
2019-03-03T19:19:54.798Z,3.80
2019-03-03T19:22:24.753Z,3.07
2019-03-03T19:24:54.431Z,3.60
2019-03-03T19:27:24.063Z,4.00
2019-03-03T19:29:53.993Z,4.50
2019-03-03T19:32:23.919Z,3.90
2019-03-03T19:34:53.774Z,3.87
2019-03-03T19:37:23.401Z,4.00
2019-03-03T19:39:53.306Z,4.30
2019-03-03T19:42:23.063Z,4.30
2019-03-03T19:44:59.242Z,3.72
2019-03-03T19:47:29.073Z,3.50
2019-03-03T19:49:59.210Z,3.17
2019-03-03T19:52:30.261Z,3.43
2019-03-03T19:55:00.654Z,3.40
2019-03-03T19:57:30.700Z,3.40
2019-03-03T20:00:00.511Z,2.83
2019-03-03T20:02:30.219Z,2.95
2019-03-03T20:05:00.237Z,3.80
2019-03-03T20:07:30.611Z,3.23
2019-03-03T20:10:00.323Z,3.90
2019-03-03T20:12:30.113Z,2.90
2019-03-03T20:14:59.749Z,2.90
2019-03-03T20:17:29.819Z,2.90
2019-03-03T20:19:59.590Z,3.13
2019-03-03T20:22:29.325Z,4.47
2019-03-03T20:24:59.403Z,3.80
2019-03-03T20:27:29.517Z,3.60
2019-03-03T20:29:59.674Z,2.93
2019-03-03T20:32:29.293Z,3.00
2019-03-03T20:34:59.236Z,3.33
2019-03-03T20:37:29.202Z,3.27
2019-03-03T20:39:59.300Z,3.13
2019-03-03T20:42:28.959Z,3.97
2019-03-03T20:44:58.626Z,2.53
2019-03-03T20:47:28.335Z,3.63
2019-03-03T20:49:58.366Z,3.03
2019-03-03T20:52:28.897Z,3.70
2019-03-03T20:54:58.695Z,4.23
2019-03-03T20:57:29.295Z,4.67
2019-03-03T20:59:59.044Z,4.23
2019-03-03T21:02:32.687Z,5.20
2019-03-03T21:05:02.589Z,4.58
2019-03-03T21:07:32.555Z,4.37
2019-03-03T21:10:02.607Z,4.83
2019-03-03T21:12:33.824Z,4.03
2019-03-03T21:15:04.014Z,3.80
2019-03-03T21:17:34.185Z,3.67
2019-03-03T21:20:04.595Z,3.90
2019-03-03T21:22:34.344Z,3.13
2019-03-03T21:25:04.119Z,3.83
2019-03-03T21:27:34.026Z,3.40
2019-03-03T21:30:04.357Z,3.17
2019-03-03T21:32:34.064Z,3.83
2019-03-03T21:35:03.817Z,3.30
2019-03-03T21:37:33.482Z,3.80
2019-03-03T21:40:03.458Z,3.90
2019-03-03T21:42:33.700Z,4.50
2019-03-03T21:45:04.511Z,3.50
2019-03-03T21:47:34.397Z,3.90
2019-03-03T21:50:04.777Z,4.07
2019-03-03T21:52:34.410Z,4.07
2019-03-03T21:55:04.499Z,3.60
2019-03-03T21:57:35.883Z,3.30
2019-03-03T22:00:11.238Z,4.03
2019-03-03T22:02:40.946Z,3.37
2019-03-03T22:05:10.659Z,3.77
2019-03-03T22:07:40.615Z,3.97
2019-03-03T22:10:10.560Z,3.33
2019-03-03T22:12:40.493Z,3.40
2019-03-03T22:15:10.461Z,3.67
2019-03-03T22:17:40.118Z,3.97
2019-03-03T22:20:10.166Z,4.13
2019-03-03T22:22:40.023Z,3.50
2019-03-03T22:25:10.059Z,3.40
2019-03-03T22:27:39.958Z,3.92
2019-03-03T22:30:10.141Z,4.25
2019-03-03T22:32:39.922Z,3.70
2019-03-03T22:35:10.216Z,3.50
2019-03-03T22:37:39.842Z,3.60
2019-03-03T22:40:11.075Z,3.77
2019-03-03T22:42:41.028Z,4.53
2019-03-03T22:45:12.181Z,4.23
2019-03-03T22:47:42.574Z,4.40
2019-03-03T22:50:12.773Z,5.00
2019-03-03T22:52:42.487Z,4.43
2019-03-03T22:55:12.293Z,4.80
2019-03-03T22:57:42.217Z,4.87
2019-03-03T23:00:50.258Z,4.97
2019-03-03T23:03:33.965Z,4.63
2019-03-03T23:06:23.778Z,5.07
2019-03-03T23:09:17.349Z,4.93
2019-03-03T23:12:40.560Z,5.60
2019-03-03T23:15:24.874Z,5.40
2019-03-03T23:18:34.114Z,5.10
2019-03-03T23:21:54.882Z,4.70
2019-03-03T23:25:02.898Z,4.57
2019-03-03T23:27:33.011Z,4.90
2019-03-03T23:30:03.236Z,5.40
2019-03-03T23:32:33.289Z,4.60
2019-03-03T23:35:02.962Z,4.00
2019-03-03T23:37:32.675Z,4.10
2019-03-03T23:40:03.733Z,4.20
2019-03-03T23:42:33.737Z,3.70
2019-03-03T23:45:03.441Z,3.50
2019-03-03T23:47:33.479Z,3.03
2019-03-03T23:50:03.155Z,3.87
2019-03-03T23:52:32.855Z,4.13
2019-03-03T23:55:02.482Z,4.93
2019-03-03T23:57:32.405Z,3.92
